createdAt,value
2023-12-31T00:00:44.807Z,3.64
2023-12-31T00:07:32.469Z,3.62
2023-12-31T00:10:44.018Z,3.41
2023-12-31T00:13:50.051Z,3.52
2023-12-31T00:16:53.732Z,3.60
2023-12-31T00:19:59.802Z,3.60
2023-12-31T00:23:05.387Z,3.63
2023-12-31T00:26:09.582Z,3.64
2023-12-31T00:29:15.740Z,3.58
2023-12-31T00:32:19.478Z,3.55
2023-12-31T00:35:23.799Z,3.55
2023-12-31T00:38:29.178Z,3.51
2023-12-31T00:41:33.741Z,3.53
2023-12-31T00:44:37.308Z,3.50
2023-12-31T00:47:41.038Z,3.44
2023-12-31T00:50:46.111Z,3.45
2023-12-31T00:53:51.304Z,3.40
2023-12-31T00:56:55.339Z,3.42
2023-12-31T00:59:58.970Z,3.37
2023-12-31T01:03:03.296Z,3.34
2023-12-31T01:06:08.419Z,3.28
2023-12-31T01:09:16.957Z,3.31
2023-12-31T01:12:20.588Z,3.26
2023-12-31T01:15:24.566Z,3.30
2023-12-31T01:18:29.005Z,3.28
2023-12-31T01:21:32.637Z,3.18
2023-12-31T01:24:38.260Z,3.20
2023-12-31T01:27:42.260Z,3.23
2023-12-31T01:30:46.501Z,3.12
2023-12-31T01:33:50.250Z,3.11
2023-12-31T01:36:54.010Z,3.13
2023-12-31T01:39:59.903Z,3.06
2023-12-31T01:43:03.672Z,3.01
2023-12-31T01:46:08.223Z,2.99
2023-12-31T01:49:12.414Z,2.95
2023-12-31T01:52:16.255Z,2.92
2023-12-31T01:55:21.991Z,2.88
2023-12-31T01:58:26.346Z,2.89
2023-12-31T02:01:30.286Z,2.83
2023-12-31T02:04:53.777Z,2.81
2023-12-31T02:07:57.601Z,2.74
2023-12-31T02:11:04.165Z,2.69
2023-12-31T02:14:07.905Z,2.63
2023-12-31T02:17:11.577Z,2.65
2023-12-31T02:20:15.908Z,2.59
2023-12-31T02:23:19.549Z,2.60
2023-12-31T02:26:27.144Z,2.55
2023-12-31T02:29:33.159Z,2.54
2023-12-31T02:32:36.941Z,2.51
2023-12-31T02:35:42.095Z,2.49
2023-12-31T02:38:46.360Z,2.50
2023-12-31T02:41:53.609Z,2.50
2023-12-31T02:44:58.734Z,2.46
2023-12-31T02:48:02.664Z,2.37
2023-12-31T02:51:09.964Z,2.49
2023-12-31T02:54:13.499Z,2.52
2023-12-31T02:57:22.182Z,2.65
2023-12-31T03:00:26.037Z,2.65
2023-12-31T03:03:29.832Z,2.54
2023-12-31T03:06:40.158Z,2.59
2023-12-31T03:09:43.759Z,2.50
2023-12-31T03:12:48.965Z,2.49
2023-12-31T03:15:53.853Z,2.51
2023-12-31T03:18:58.134Z,2.43
2023-12-31T03:22:01.726Z,2.44
2023-12-31T03:25:06.875Z,2.39
2023-12-31T03:28:14.814Z,2.34
2023-12-31T03:31:18.358Z,2.22
2023-12-31T03:34:22.455Z,2.31
2023-12-31T03:37:26.336Z,2.22
2023-12-31T03:40:30.069Z,2.20
2023-12-31T03:43:35.135Z,2.25
2023-12-31T03:46:38.843Z,2.19
2023-12-31T03:49:45.133Z,2.28
2023-12-31T03:52:48.965Z,2.26
2023-12-31T03:55:52.634Z,2.23
2023-12-31T03:58:57.768Z,2.37
2023-12-31T04:02:01.565Z,2.26
2023-12-31T04:05:06.887Z,2.30
2023-12-31T04:08:10.688Z,2.30
2023-12-31T04:11:14.856Z,2.30
2023-12-31T04:14:20.053Z,2.34
2023-12-31T04:17:26.487Z,2.33
2023-12-31T04:20:30.120Z,2.33
2023-12-31T04:23:33.767Z,2.40
2023-12-31T04:26:37.805Z,2.42
2023-12-31T04:29:44.157Z,2.42
2023-12-31T04:34:12.943Z,2.41
2023-12-31T04:37:17.006Z,2.50
2023-12-31T04:40:20.976Z,2.58
2023-12-31T04:43:24.549Z,2.73
2023-12-31T04:46:28.414Z,2.50
2023-12-31T04:49:33.902Z,2.81
2023-12-31T04:52:37.521Z,2.82
2023-12-31T04:55:41.160Z,2.80
2023-12-31T04:58:44.842Z,2.86
2023-12-31T05:01:51.426Z,2.75
2023-12-31T05:04:56.785Z,2.90
2023-12-31T05:08:00.326Z,2.95
2023-12-31T05:11:04.548Z,2.82
2023-12-31T05:14:08.189Z,2.86
2023-12-31T05:17:11.803Z,2.67
2023-12-31T05:20:17.909Z,2.85
2023-12-31T05:23:21.618Z,2.90
2023-12-31T05:26:25.157Z,2.93
2023-12-31T05:29:31.694Z,2.93
2023-12-31T05:32:35.358Z,3.01
2023-12-31T05:35:40.383Z,2.83
2023-12-31T05:38:45.478Z,2.72
2023-12-31T05:41:51.071Z,2.81
2023-12-31T05:44:55.007Z,2.99
2023-12-31T05:47:58.883Z,3.06
2023-12-31T05:51:06.245Z,3.01
2023-12-31T05:54:13.019Z,2.91
2023-12-31T05:57:16.754Z,2.79
2023-12-31T06:00:20.665Z,2.88
2023-12-31T06:03:26.829Z,2.95
2023-12-31T06:06:36.163Z,3.03
2023-12-31T06:09:39.862Z,2.93
2023-12-31T06:12:43.680Z,2.91
2023-12-31T06:15:47.301Z,3.03
2023-12-31T06:18:50.940Z,3.15
2023-12-31T06:21:55.937Z,3.21
2023-12-31T06:25:01.927Z,3.34
2023-12-31T06:28:13.267Z,3.37
2023-12-31T06:31:17.165Z,3.45
2023-12-31T06:34:20.979Z,3.52
2023-12-31T06:37:26.990Z,3.53
2023-12-31T06:40:30.772Z,3.76
2023-12-31T06:43:34.365Z,3.66
2023-12-31T06:46:38.099Z,3.69
2023-12-31T06:49:42.491Z,3.84
2023-12-31T06:52:50.972Z,4.07
2023-12-31T06:55:54.595Z,4.08
2023-12-31T06:58:58.341Z,4.14
2023-12-31T07:02:02.104Z,3.97
2023-12-31T07:05:07.331Z,4.01
2023-12-31T07:08:12.357Z,3.96
2023-12-31T07:11:18.198Z,3.96
2023-12-31T07:14:25.577Z,4.06
2023-12-31T07:17:30.777Z,3.89
2023-12-31T07:20:34.767Z,4.04
2023-12-31T07:23:40.917Z,4.07
2023-12-31T07:26:51.991Z,3.97
2023-12-31T07:29:55.611Z,3.94
2023-12-31T07:32:59.465Z,3.94
2023-12-31T07:36:03.249Z,3.97
2023-12-31T07:39:08.250Z,3.91
2023-12-31T07:42:11.984Z,4.02
2023-12-31T07:45:15.771Z,4.05
2023-12-31T07:48:19.513Z,4.09
2023-12-31T07:51:23.090Z,4.11
2023-12-31T07:54:28.157Z,4.14
2023-12-31T07:57:31.878Z,4.21
2023-12-31T08:00:35.488Z,4.24
2023-12-31T08:03:39.606Z,4.31
2023-12-31T08:06:45.038Z,4.40
2023-12-31T08:09:50.240Z,4.48
2023-12-31T08:12:53.977Z,4.43
2023-12-31T08:15:57.678Z,4.50
2023-12-31T08:19:01.353Z,4.36
2023-12-31T08:22:05.162Z,4.37
2023-12-31T08:25:10.405Z,4.41
2023-12-31T08:28:14.162Z,4.49
2023-12-31T08:31:18.574Z,4.72
2023-12-31T08:34:22.538Z,4.76
2023-12-31T08:37:26.195Z,4.85
2023-12-31T08:40:31.348Z,4.94
2023-12-31T08:43:38.323Z,4.79
2023-12-31T08:46:42.368Z,5.00
2023-12-31T08:49:46.507Z,5.05
2023-12-31T08:52:50.785Z,5.22
2023-12-31T08:55:55.852Z,5.23
2023-12-31T08:58:59.583Z,5.19
2023-12-31T09:02:03.310Z,5.20
2023-12-31T09:05:07.640Z,5.28
2023-12-31T09:08:11.575Z,5.32
2023-12-31T09:11:17.921Z,5.25
2023-12-31T09:14:21.603Z,5.19
2023-12-31T09:17:25.331Z,5.22
2023-12-31T09:20:28.883Z,5.26
2023-12-31T09:23:32.433Z,5.26
2023-12-31T09:26:37.469Z,5.40
2023-12-31T09:29:41.106Z,5.38
2023-12-31T09:32:45.079Z,5.28
2023-12-31T09:35:48.948Z,5.10
2023-12-31T09:38:52.541Z,5.35
2023-12-31T09:42:02.371Z,5.34
2023-12-31T09:45:09.506Z,5.39
2023-12-31T09:48:15.731Z,5.50
2023-12-31T09:51:19.672Z,5.38
2023-12-31T09:54:24.277Z,5.40
2023-12-31T09:57:32.702Z,5.65
2023-12-31T10:00:36.660Z,5.66
2023-12-31T10:03:40.604Z,5.77
2023-12-31T10:06:45.026Z,5.91
2023-12-31T10:09:49.052Z,5.99
2023-12-31T10:12:53.897Z,5.81
2023-12-31T10:15:57.554Z,6.00
2023-12-31T10:19:01.778Z,6.00
2023-12-31T10:22:07.771Z,6.06
2023-12-31T10:25:15.971Z,6.07
2023-12-31T10:28:21.147Z,6.14
2023-12-31T10:34:19.414Z,5.94
2023-12-31T10:37:24.243Z,6.17
2023-12-31T10:40:28.461Z,6.24
2023-12-31T10:43:35.161Z,6.34
2023-12-31T10:46:43.670Z,6.41
2023-12-31T10:49:50.835Z,6.46
2023-12-31T10:52:59.116Z,6.46
2023-12-31T10:56:03.693Z,6.50
2023-12-31T10:59:07.925Z,6.53
2023-12-31T11:02:17.260Z,6.60
2023-12-31T11:05:24.013Z,6.70
2023-12-31T11:08:29.700Z,6.72
2023-12-31T11:11:33.332Z,6.80
2023-12-31T11:14:39.506Z,6.86
2023-12-31T11:18:10.764Z,6.94
2023-12-31T11:21:25.591Z,6.96
2023-12-31T11:24:29.753Z,6.89
2023-12-31T11:27:34.765Z,7.06
2023-12-31T11:30:51.363Z,7.14
2023-12-31T11:33:55.900Z,7.15
2023-12-31T11:37:02.933Z,7.19
2023-12-31T11:40:08.724Z,7.37
2023-12-31T11:43:14.384Z,7.37
2023-12-31T11:46:40.618Z,7.15
2023-12-31T11:49:48.222Z,7.21
2023-12-31T11:52:54.818Z,7.17
2023-12-31T11:55:59.999Z,7.21
2023-12-31T11:59:03.753Z,7.36
2023-12-31T12:02:09.209Z,7.25
2023-12-31T12:05:12.976Z,7.42
2023-12-31T12:08:18.512Z,7.23
2023-12-31T12:11:24.939Z,7.28
2023-12-31T12:14:28.762Z,7.22
2023-12-31T12:17:32.588Z,7.37
2023-12-31T12:20:38.119Z,7.33
2023-12-31T12:23:44.198Z,7.27
2023-12-31T12:26:51.743Z,7.31
2023-12-31T12:29:55.382Z,7.45
2023-12-31T12:33:03.890Z,7.35
2023-12-31T12:36:08.006Z,7.43
2023-12-31T12:39:16.763Z,7.61
2023-12-31T12:42:20.440Z,7.64
2023-12-31T12:45:24.401Z,7.69
2023-12-31T12:48:29.222Z,7.70
2023-12-31T12:51:34.624Z,7.72
2023-12-31T12:54:39.852Z,7.68
2023-12-31T12:57:43.956Z,7.74
2023-12-31T13:00:48.059Z,7.76
2023-12-31T13:03:53.182Z,7.74
2023-12-31T13:06:59.193Z,7.74
2023-12-31T13:10:04.124Z,7.77
2023-12-31T13:13:07.684Z,7.85
2023-12-31T13:16:18.485Z,7.81
2023-12-31T13:19:26.362Z,7.83
2023-12-31T13:22:32.753Z,7.78
2023-12-31T13:25:38.324Z,7.84
2023-12-31T13:28:41.892Z,7.86
2023-12-31T13:31:45.639Z,7.90
2023-12-31T13:34:49.292Z,7.87
2023-12-31T13:37:52.890Z,7.78
2023-12-31T13:40:58.073Z,7.88
2023-12-31T13:44:01.933Z,7.99
2023-12-31T13:47:06.031Z,8.04
2023-12-31T13:50:10.124Z,8.12
2023-12-31T13:53:15.833Z,8.20
2023-12-31T13:56:20.921Z,8.27
2023-12-31T13:59:24.564Z,8.41
2023-12-31T14:02:28.233Z,8.54
2023-12-31T14:05:33.751Z,8.61
2023-12-31T14:08:38.208Z,8.62
2023-12-31T14:11:43.626Z,8.57
2023-12-31T14:15:05.869Z,8.58
2023-12-31T14:18:10.124Z,8.57
2023-12-31T14:21:13.854Z,8.56
2023-12-31T14:24:18.026Z,8.56
2023-12-31T14:27:23.022Z,8.57
2023-12-31T14:30:37.382Z,8.53
2023-12-31T14:33:42.415Z,8.51
2023-12-31T14:36:46.126Z,8.44
2023-12-31T14:39:51.072Z,8.37
2023-12-31T14:42:56.630Z,8.39
2023-12-31T14:46:00.176Z,8.32
2023-12-31T14:49:07.371Z,8.36
2023-12-31T14:52:12.167Z,8.39
2023-12-31T14:55:15.988Z,8.30
2023-12-31T14:58:23.203Z,8.27
2023-12-31T15:01:28.737Z,8.27
2023-12-31T15:04:32.353Z,8.19
2023-12-31T15:07:36.135Z,8.03
2023-12-31T15:10:41.488Z,8.11
2023-12-31T15:13:47.041Z,8.27
2023-12-31T15:16:53.778Z,8.18
2023-12-31T15:19:57.644Z,8.16
2023-12-31T15:23:01.399Z,8.17
2023-12-31T15:26:05.362Z,8.10
2023-12-31T15:29:10.612Z,8.06
2023-12-31T15:32:14.403Z,8.11
2023-12-31T15:35:19.240Z,8.07
2023-12-31T15:38:23.106Z,7.97
2023-12-31T15:41:28.358Z,8.02
2023-12-31T15:44:33.309Z,7.62
2023-12-31T15:47:37.046Z,8.01
2023-12-31T15:50:40.592Z,7.99
2023-12-31T15:53:44.147Z,7.87
2023-12-31T15:56:50.869Z,7.89
2023-12-31T15:59:55.793Z,7.91
2023-12-31T16:02:59.354Z,7.69
2023-12-31T16:06:03.432Z,7.84
2023-12-31T16:09:07.293Z,7.69
2023-12-31T16:12:11.072Z,7.62
2023-12-31T16:15:15.932Z,7.61
2023-12-31T16:18:21.472Z,7.82
2023-12-31T16:21:25.208Z,7.65
2023-12-31T16:24:28.767Z,7.76
2023-12-31T16:27:32.398Z,7.62
2023-12-31T16:34:12.241Z,7.44
2023-12-31T16:37:15.842Z,7.39
2023-12-31T16:40:19.430Z,7.37
2023-12-31T16:43:24.166Z,7.39
2023-12-31T16:46:27.972Z,7.37
2023-12-31T16:49:33.347Z,7.40
2023-12-31T16:52:37.291Z,7.42
2023-12-31T16:55:41.083Z,7.54
2023-12-31T16:58:44.734Z,7.37
2023-12-31T17:01:48.727Z,7.45
2023-12-31T17:04:53.719Z,7.55
2023-12-31T17:07:57.345Z,7.30
2023-12-31T17:11:01.292Z,7.18
2023-12-31T17:14:05.184Z,7.24
2023-12-31T17:17:08.911Z,7.28
2023-12-31T17:20:14.463Z,7.37
2023-12-31T17:23:19.630Z,7.37
2023-12-31T17:26:23.546Z,7.20
2023-12-31T17:29:27.110Z,7.42
2023-12-31T17:32:30.787Z,7.40
2023-12-31T17:35:35.861Z,7.40
2023-12-31T17:38:39.431Z,7.27
2023-12-31T17:41:51.979Z,7.23
2023-12-31T17:44:55.774Z,7.20
2023-12-31T17:47:59.533Z,7.13
2023-12-31T17:51:07.204Z,7.13
2023-12-31T17:54:10.775Z,7.18
2023-12-31T17:57:14.443Z,7.21
2023-12-31T18:00:19.461Z,7.29
2023-12-31T18:03:24.394Z,7.20
2023-12-31T18:06:29.416Z,7.16
2023-12-31T18:09:33.042Z,7.23
2023-12-31T18:12:36.613Z,7.27
2023-12-31T18:15:40.218Z,7.11
2023-12-31T18:18:43.731Z,7.33
2023-12-31T18:21:48.704Z,7.38
2023-12-31T18:24:52.357Z,7.32
2023-12-31T18:27:56.024Z,7.27
2023-12-31T18:30:59.680Z,7.20
2023-12-31T18:34:03.860Z,7.21
2023-12-31T18:37:08.776Z,7.23
2023-12-31T18:40:12.902Z,7.30
2023-12-31T18:43:16.502Z,7.25
2023-12-31T18:46:20.572Z,7.18
2023-12-31T18:49:26.679Z,7.35
2023-12-31T18:52:32.177Z,7.41
2023-12-31T18:55:35.786Z,7.33
2023-12-31T18:58:39.533Z,7.43
2023-12-31T19:01:43.531Z,7.47
2023-12-31T19:04:47.254Z,7.41
2023-12-31T19:07:52.504Z,7.39
2023-12-31T19:10:56.288Z,7.43
2023-12-31T19:13:59.984Z,7.46
2023-12-31T19:17:04.384Z,7.47
2023-12-31T19:20:10.861Z,7.41
2023-12-31T19:23:16.734Z,7.44
2023-12-31T19:26:21.793Z,7.43
2023-12-31T19:29:25.354Z,7.24
2023-12-31T19:32:29.752Z,7.30
2023-12-31T19:35:33.583Z,7.35
2023-12-31T19:38:38.688Z,7.28
2023-12-31T19:41:42.244Z,7.23
2023-12-31T19:44:46.051Z,7.25
2023-12-31T19:47:51.791Z,7.29
2023-12-31T19:50:56.441Z,7.22
2023-12-31T19:54:01.446Z,7.16
2023-12-31T19:57:05.205Z,7.14
2023-12-31T20:00:09.854Z,7.23
2023-12-31T20:03:17.504Z,7.19
2023-12-31T20:06:21.201Z,7.05
2023-12-31T20:09:26.171Z,7.16
2023-12-31T20:12:30.022Z,6.82
2023-12-31T20:15:33.804Z,7.11
2023-12-31T20:18:37.830Z,7.02
2023-12-31T20:21:41.659Z,6.92
2023-12-31T20:24:46.699Z,6.93
2023-12-31T20:27:50.298Z,6.97
2023-12-31T20:30:54.040Z,6.91
2023-12-31T20:33:57.836Z,7.03
2023-12-31T20:37:03.313Z,6.94
2023-12-31T20:40:09.792Z,6.96
2023-12-31T20:43:13.547Z,6.94
2023-12-31T20:46:17.351Z,6.89
2023-12-31T20:49:21.270Z,6.89
2023-12-31T20:52:24.923Z,6.82
2023-12-31T20:55:32.331Z,6.88
2023-12-31T20:58:36.765Z,6.79
2023-12-31T21:01:42.993Z,6.85
2023-12-31T21:04:46.690Z,6.94
2023-12-31T21:07:50.376Z,6.80
2023-12-31T21:10:57.763Z,6.84
2023-12-31T21:14:01.399Z,6.77
2023-12-31T21:17:05.386Z,6.63
2023-12-31T21:20:10.562Z,6.66
2023-12-31T21:23:14.211Z,6.64
2023-12-31T21:26:20.622Z,6.67
2023-12-31T21:29:24.265Z,6.68
2023-12-31T21:32:28.165Z,6.66
2023-12-31T21:35:31.844Z,6.61
2023-12-31T21:38:35.450Z,6.52
2023-12-31T21:41:41.361Z,6.54
2023-12-31T21:44:46.664Z,6.59
2023-12-31T21:47:50.211Z,6.49
2023-12-31T21:50:53.849Z,6.47
2023-12-31T21:53:57.455Z,6.48
2023-12-31T21:57:04.826Z,6.41
2023-12-31T22:00:11.603Z,6.24
2023-12-31T22:03:15.199Z,6.28
2023-12-31T22:06:19.609Z,6.28
2023-12-31T22:09:23.588Z,6.15
2023-12-31T22:12:28.557Z,6.18
2023-12-31T22:15:32.741Z,6.09
2023-12-31T22:18:37.670Z,6.20
2023-12-31T22:21:43.199Z,6.14
2023-12-31T22:25:06.896Z,6.01
2023-12-31T22:28:31.248Z,5.96
2023-12-31T22:34:12.214Z,5.93
2023-12-31T22:37:15.796Z,5.90
2023-12-31T22:40:20.082Z,5.47
2023-12-31T22:43:25.213Z,5.97
2023-12-31T22:46:29.908Z,5.86
2023-12-31T22:49:34.848Z,5.89
2023-12-31T22:52:38.513Z,5.93
2023-12-31T22:55:42.382Z,5.99
2023-12-31T22:58:46.069Z,5.94
2023-12-31T23:01:49.797Z,5.84
2023-12-31T23:04:54.476Z,5.83
2023-12-31T23:07:57.778Z,5.79
2023-12-31T23:11:01.117Z,5.76
2023-12-31T23:14:04.536Z,5.68
2023-12-31T23:17:07.884Z,5.65
2023-12-31T23:20:13.386Z,5.62
2023-12-31T23:23:16.735Z,5.60
2023-12-31T23:26:21.984Z,5.55
2023-12-31T23:29:26.030Z,5.56
2023-12-31T23:32:29.323Z,5.55
2023-12-31T23:35:34.301Z,5.58
2023-12-31T23:38:37.526Z,5.49
2023-12-31T23:41:45.030Z,5.60
2023-12-31T23:44:50.851Z,5.58
2023-12-31T23:47:54.301Z,5.66
2023-12-31T23:50:58.981Z,5.57
2023-12-31T23:54:02.479Z,5.54
2023-12-31T23:57:05.804Z,5.54
